Time;durP1;ratioP1;P1;durP2;ratioP2;P2;SDS_P1;SDS_P2;PMS_P1;PMS_P2;Temp;Humidity;BMP_temperature;BMP_pressure;BME280_temperature;BME280_humidity;BME280_pressure;Samples;Min_cycle;Max_cycle;Signal;HPM_P1;HPM_P2
2023/03/04 00:00:27;;;;;;;46.27;43.77;;;;;;;5.39;100.00;101877.97;4972398;28;20469;-46
2023/03/04 00:02:56;;;;;;;48.50;45.33;;;;;;;5.40;100.00;101889.38;4973053;28;21039;-48
2023/03/04 00:05:23;;;;;;;46.40;43.60;;;;;;;5.39;100.00;101877.97;4973014;28;20802;-49
2023/03/04 00:07:51;;;;;;;46.43;43.20;;;;;;;5.42;100.00;101884.78;4973078;28;20450;-48
2023/03/04 00:10:19;;;;;;;47.17;44.33;;;;;;;5.46;100.00;101888.84;4972568;28;20466;-45
2023/03/04 00:12:46;;;;;;;48.27;45.43;;;;;;;5.48;100.00;101889.53;4972809;28;20451;-45
2023/03/04 00:15:14;;;;;;;48.70;45.80;;;;;;;5.50;100.00;101879.63;4973035;28;21061;-47
2023/03/04 00:17:42;;;;;;;48.10;45.77;;;;;;;5.52;100.00;101893.59;4973145;28;20433;-51
2023/03/04 00:20:13;;;;;;;44.93;42.10;;;;;;;5.53;100.00;101893.44;4972446;28;20525;-47
2023/03/04 00:22:40;;;;;;;47.90;45.13;;;;;;;5.53;100.00;101876.72;4973014;28;20462;-47
2023/03/04 00:25:08;;;;;;;46.40;43.73;;;;;;;5.56;100.00;101892.31;4972659;28;20526;-47
2023/03/04 00:27:36;;;;;;;45.57;43.17;;;;;;;5.56;100.00;101895.81;4973100;28;20451;-50
2023/03/04 00:30:05;;;;;;;46.00;43.10;;;;;;;5.57;100.00;101894.84;4972553;28;20905;-46
2023/03/04 00:32:33;;;;;;;47.53;43.80;;;;;;;5.55;100.00;101891.47;4972766;28;20458;-48
2023/03/04 00:35:01;;;;;;;47.77;44.60;;;;;;;5.56;100.00;101881.75;4972965;28;20439;-46
2023/03/04 00:37:30;;;;;;;46.50;43.03;;;;;;;5.54;100.00;101875.75;4972928;28;20462;-48
2023/03/04 00:39:58;;;;;;;44.87;42.30;;;;;;;5.54;100.00;101894.28;4972174;28;20463;-46
2023/03/04 00:42:25;;;;;;;46.50;44.03;;;;;;;5.53;100.00;101892.59;4972758;28;20455;-50
2023/03/04 00:44:53;;;;;;;46.17;43.43;;;;;;;5.55;100.00;101883.53;4972461;28;20951;-45
2023/03/04 00:47:21;;;;;;;45.80;43.00;;;;;;;5.53;100.00;101874.91;4972931;28;20435;-46
2023/03/04 00:49:48;;;;;;;48.17;45.47;;;;;;;5.55;100.00;101878.25;4972245;28;20842;-47
2023/03/04 00:52:16;;;;;;;45.93;43.63;;;;;;;5.55;100.00;101880.09;4972607;28;20459;-48
2023/03/04 00:54:45;;;;;;;46.87;44.43;;;;;;;5.53;100.00;101874.91;4972377;28;20442;-45
2023/03/04 00:57:13;;;;;;;48.20;45.20;;;;;;;5.55;100.00;101872.16;4972678;28;20439;-48
2023/03/04 00:59:42;;;;;;;48.90;46.10;;;;;;;5.55;100.00;101882.72;4972306;28;21017;-46
2023/03/04 01:02:10;;;;;;;47.43;44.63;;;;;;;5.58;100.00;101864.75;4972354;28;20462;-45
2023/03/04 01:04:38;;;;;;;49.87;46.17;;;;;;;5.61;100.00;101865.47;4972322;28;20427;-49
2023/03/04 01:07:06;;;;;;;48.80;45.73;;;;;;;5.61;100.00;101876.91;4972484;28;20632;-48
2023/03/04 01:09:34;;;;;;;50.13;46.60;;;;;;;5.62;100.00;101862.66;4972404;28;20449;-48
2023/03/04 01:12:03;;;;;;;47.33;44.77;;;;;;;5.64;100.00;101859.91;4972613;28;20451;-46
2023/03/04 01:14:31;;;;;;;49.90;46.87;;;;;;;5.67;100.00;101862.28;4972521;28;20499;-50
2023/03/04 01:16:59;;;;;;;49.10;46.07;;;;;;;5.64;100.00;101863.41;4972534;28;20481;-44
2023/03/04 01:19:27;;;;;;;47.23;44.27;;;;;;;5.65;100.00;101843.88;4972489;28;20841;-50
2023/03/04 01:21:54;;;;;;;47.03;44.87;;;;;;;5.67;100.00;101847.25;4972266;28;20592;-51
2023/03/04 01:24:22;;;;;;;49.23;46.53;;;;;;;5.66;100.00;101845.56;4973444;28;20928;-48
2023/03/04 01:26:50;;;;;;;48.87;46.10;;;;;;;5.68;100.00;101838.31;4975968;28;20442;-47
2023/03/04 01:29:19;;;;;;;46.73;44.53;;;;;;;5.69;100.00;101834.69;4975809;28;20450;-47
2023/03/04 01:31:46;;;;;;;45.80;43.17;;;;;;;5.68;100.00;101817.13;4974957;28;20474;-47
2023/03/04 01:34:14;;;;;;;47.50;44.80;;;;;;;5.73;100.00;101828.16;4975462;28;20434;-47
2023/03/04 01:36:42;;;;;;;46.00;43.03;;;;;;;5.70;100.00;101809.91;4975866;28;20557;-48
2023/03/04 01:39:09;;;;;;;46.80;44.27;;;;;;;5.68;100.00;101829.53;4975798;28;20841;-49
2023/03/04 01:41:37;;;;;;;46.10;43.80;;;;;;;5.65;100.00;101822.69;4975327;28;20463;-46
2023/03/04 01:44:05;;;;;;;47.03;44.53;;;;;;;5.67;100.00;101819.94;4975356;28;20850;-50
2023/03/04 01:46:34;;;;;;;44.73;41.77;;;;;;;5.65;100.00;101812.13;4975341;28;20490;-50
2023/03/04 01:49:03;;;;;;;45.40;43.10;;;;;;;5.66;100.00;101813.81;4975318;28;20454;-50
2023/03/04 01:51:30;;;;;;;47.03;44.57;;;;;;;5.64;100.00;101797.25;4974524;28;20489;-46
2023/03/04 01:53:58;;;;;;;46.47;43.50;;;;;;;5.63;100.00;101797.34;4967329;28;20853;-45
2023/03/04 01:56:29;;;;;;;49.20;45.83;;;;;;;5.63;100.00;101800.84;4965035;28;20534;-48
2023/03/04 01:59:12;;;;;;;46.47;44.17;;;;;;;5.56;100.00;101800.56;4973790;28;20441;-45
2023/03/04 02:01:43;;;;;;;46.97;44.23;;;;;;;5.62;100.00;101790.38;4974848;28;20463;-48
2023/03/04 02:04:12;;;;;;;45.47;42.60;;;;;;;5.59;100.00;101791.50;4975310;28;20442;-46
2023/03/04 02:06:41;;;;;;;44.20;41.67;;;;;;;5.55;100.00;101795.41;4975149;28;20435;-45
2023/03/04 02:09:10;;;;;;;42.57;40.10;;;;;;;5.56;100.00;101765.31;4975071;28;20441;-46
2023/03/04 02:11:39;;;;;;;42.03;39.70;;;;;;;5.57;100.00;101762.56;4974311;28;21109;-48
2023/03/04 02:14:07;;;;;;;41.60;39.67;;;;;;;5.55;100.00;101758.38;4974995;28;20431;-47
2023/03/04 02:16:34;;;;;;;40.83;38.23;;;;;;;5.57;100.00;101761.72;4975231;28;20466;-44
2023/03/04 02:19:06;;;;;;;39.70;37.23;;;;;;;5.63;100.00;101753.22;4974861;28;20446;-45
2023/03/04 02:21:34;;;;;;;39.73;37.77;;;;;;;5.65;100.00;101764.47;4974408;28;20467;-48
2023/03/04 02:24:10;;;;;;;40.90;38.43;;;;;;;5.68;100.00;101755.44;4974558;28;20465;-45
2023/03/04 02:26:42;;;;;;;39.97;37.40;;;;;;;5.73;100.00;101756.69;4975020;28;20461;-47
2023/03/04 02:29:11;;;;;;;41.23;38.47;;;;;;;5.73;100.00;101766.44;4974870;28;20552;-45
2023/03/04 02:31:41;;;;;;;40.63;38.63;;;;;;;5.72;100.00;101770.06;4974076;28;20479;-48
2023/03/04 02:34:14;;;;;;;38.43;36.63;;;;;;;5.74;100.00;101762.81;4974566;28;20441;-47
2023/03/04 02:36:43;;;;;;;39.47;37.50;;;;;;;5.73;100.00;101761.16;4973454;28;20443;-46
2023/03/04 02:39:14;;;;;;;42.87;40.03;;;;;;;5.73;100.00;101759.34;4974669;28;20438;-47
2023/03/04 02:41:43;;;;;;;42.87;40.43;;;;;;;5.67;100.00;101762.56;4973857;28;20469;-45
2023/03/04 02:44:17;;;;;;;41.70;39.60;;;;;;;5.67;100.00;101745.84;4974790;28;20438;-48
2023/03/04 02:46:45;;;;;;;41.27;38.93;;;;;;;5.63;100.00;101744.44;4974399;28;20439;-45
2023/03/04 02:49:13;;;;;;;41.20;39.00;;;;;;;5.56;100.00;101745.00;4974157;28;20534;-45
2023/03/04 02:51:41;;;;;;;43.27;40.00;;;;;;;5.59;100.00;101751.81;4973524;28;20566;-45
2023/03/04 02:54:15;;;;;;;42.07;39.87;;;;;;;5.54;100.00;101749.59;4973979;28;20931;-45
2023/03/04 02:56:46;;;;;;;40.93;38.13;;;;;;;5.50;100.00;101750.00;4974459;28;20434;-45
2023/03/04 02:59:14;;;;;;;39.80;37.27;;;;;;;5.50;100.00;101747.34;4974426;28;20427;-47
2023/03/04 03:01:42;;;;;;;39.23;36.70;;;;;;;5.48;100.00;101744.88;4973750;28;20478;-44
2023/03/04 03:04:09;;;;;;;40.23;37.40;;;;;;;5.50;100.00;101736.78;4973893;28;20439;-48
2023/03/04 03:06:37;;;;;;;37.83;35.83;;;;;;;5.52;100.00;101743.63;4974221;28;20818;-46
2023/03/04 03:09:05;;;;;;;38.37;35.30;;;;;;;5.52;100.00;101734.84;4973891;28;20435;-45
2023/03/04 03:11:34;;;;;;;40.57;37.47;;;;;;;5.50;100.00;101740.25;4973299;28;20485;-46
2023/03/04 03:14:03;;;;;;;39.07;36.43;;;;;;;5.48;100.00;101736.94;4973548;28;20438;-44
2023/03/04 03:16:31;;;;;;;38.60;35.90;;;;;;;5.46;100.00;101735.41;4974094;28;20446;-46
2023/03/04 03:18:59;;;;;;;40.83;36.50;;;;;;;5.45;100.00;101731.06;4973882;28;20424;-46
2023/03/04 03:21:27;;;;;;;39.77;36.27;;;;;;;5.48;100.00;101738.72;4973325;28;20829;-45
2023/03/04 03:23:54;;;;;;;37.50;34.90;;;;;;;5.52;100.00;101727.75;4973746;28;20826;-47
2023/03/04 03:26:22;;;;;;;38.63;35.43;;;;;;;5.51;100.00;101739.28;4973732;28;20431;-45
2023/03/04 03:28:50;;;;;;;36.23;33.60;;;;;;;5.45;100.00;101731.06;4973745;28;20518;-48
2023/03/04 03:31:19;;;;;;;35.83;33.00;;;;;;;5.39;100.00;101744.84;4972898;28;20489;-45
2023/03/04 03:33:47;;;;;;;36.40;33.83;;;;;;;5.34;100.00;101774.38;4973721;28;20438;-48
2023/03/04 03:36:14;;;;;;;36.30;33.03;;;;;;;5.30;100.00;101761.56;4973448;28;20443;-45
2023/03/04 03:38:42;;;;;;;36.27;33.23;;;;;;;5.32;100.00;101756.94;4973612;28;20852;-45
2023/03/04 03:41:10;;;;;;;35.97;33.33;;;;;;;5.28;100.00;101759.06;4972911;28;20473;-47
2023/03/04 03:43:38;;;;;;;37.73;34.53;;;;;;;5.26;100.00;101753.06;4973499;28;20435;-48
2023/03/04 03:46:05;;;;;;;36.10;32.90;;;;;;;5.28;100.00;101745.84;4973393;28;20435;-49
2023/03/04 03:48:34;;;;;;;35.33;32.67;;;;;;;5.26;100.00;101736.34;4973148;28;20971;-46
2023/03/04 03:51:02;;;;;;;37.10;33.70;;;;;;;5.23;100.00;101758.63;4972713;28;20473;-53
2023/03/04 03:53:29;;;;;;;43.60;34.20;;;;;;;5.25;100.00;101742.63;4973491;28;20454;-49
2023/03/04 03:55:58;;;;;;;38.53;34.73;;;;;;;5.21;100.00;101738.56;4972956;28;20466;-49
2023/03/04 03:58:26;;;;;;;34.03;31.33;;;;;;;5.20;100.00;101744.81;4972958;28;21023;-47
2023/03/04 04:00:54;;;;;;;36.97;33.37;;;;;;;5.17;100.00;101732.72;4972705;28;20473;-46
2023/03/04 04:03:25;;;;;;;35.33;32.53;;;;;;;5.15;100.00;101739.13;4973263;28;20455;-48
2023/03/04 04:05:54;;;;;;;36.13;32.40;;;;;;;5.12;100.00;101747.34;4973004;28;20487;-45
2023/03/04 04:08:21;;;;;;;36.43;33.20;;;;;;;5.11;100.00;101741.19;4972997;28;20437;-45
2023/03/04 04:10:49;;;;;;;37.17;33.30;;;;;;;5.07;100.00;101745.13;4972731;28;20463;-50
2023/03/04 04:13:17;;;;;;;34.63;31.80;;;;;;;5.03;100.00;101733.97;4973062;28;20484;-46
2023/03/04 04:15:45;;;;;;;35.93;32.47;;;;;;;4.99;100.00;101744.94;4973005;28;20810;-45
2023/03/04 04:18:13;;;;;;;34.33;31.43;;;;;;;4.93;100.00;101748.13;4973064;28;20437;-47
2023/03/04 04:20:40;;;;;;;36.03;33.03;;;;;;;4.92;100.00;101751.75;4972565;28;20459;-46
2023/03/04 04:23:09;;;;;;;33.47;30.57;;;;;;;4.89;100.00;101737.00;4972802;28;20457;-45
2023/03/04 04:25:37;;;;;;;35.60;32.23;;;;;;;4.86;100.00;101741.72;4972892;28;20438;-49
2023/03/04 04:28:05;;;;;;;35.07;31.73;;;;;;;4.86;100.00;101755.78;4972969;28;20431;-46
2023/03/04 04:30:33;;;;;;;34.43;31.97;;;;;;;4.83;100.00;101724.34;4972477;28;20470;-47
2023/03/04 04:33:03;;;;;;;33.33;31.13;;;;;;;4.88;100.00;101743.25;4972576;28;20489;-44
2023/03/04 04:35:31;;;;;;;35.17;31.80;;;;;;;4.89;100.00;101746.75;4972559;28;20443;-45
2023/03/04 04:37:59;;;;;;;35.30;32.03;;;;;;;4.84;100.00;101727.78;4972986;28;20431;-44
2023/03/04 04:40:28;;;;;;;34.63;31.93;;;;;;;4.84;100.00;101744.47;4972511;28;20829;-45
2023/03/04 04:42:56;;;;;;;33.87;31.70;;;;;;;4.82;100.00;101749.09;4972851;28;20996;-45
2023/03/04 04:45:24;;;;;;;33.47;30.63;;;;;;;4.85;100.00;101750.63;4972615;28;20434;-46
2023/03/04 04:47:52;;;;;;;35.03;32.40;;;;;;;4.85;100.00;101742.69;4972574;28;20490;-47
2023/03/04 04:50:20;;;;;;;32.67;30.07;;;;;;;4.82;100.00;101753.53;4972454;28;20810;-48
2023/03/04 04:52:47;;;;;;;35.20;32.67;;;;;;;4.81;100.00;101739.47;4972425;28;20478;-45
2023/03/04 04:55:16;;;;;;;32.23;30.13;;;;;;;4.78;100.00;101747.66;4972495;28;20435;-45
2023/03/04 04:57:45;;;;;;;33.83;31.17;;;;;;;4.76;100.00;101746.13;4972752;28;20438;-45
2023/03/04 05:00:14;;;;;;;32.07;30.00;;;;;;;4.79;100.00;101746.72;4974964;28;20542;-48
2023/03/04 05:02:41;;;;;;;32.63;30.13;;;;;;;4.78;100.00;101745.03;4976135;28;20489;-45
2023/03/04 05:05:09;;;;;;;33.27;30.53;;;;;;;4.73;100.00;101746.41;4976246;28;20434;-48
2023/03/04 05:07:37;;;;;;;32.50;30.50;;;;;;;4.74;100.00;101745.44;4976345;28;20446;-47
2023/03/04 05:10:05;;;;;;;30.90;28.97;;;;;;;4.74;100.00;101740.16;4975903;28;20498;-45
2023/03/04 05:12:33;;;;;;;31.93;29.93;;;;;;;4.71;100.00;101746.56;4976044;28;20877;-48
2023/03/04 05:15:02;;;;;;;31.20;29.03;;;;;;;4.70;100.00;101742.22;4975724;28;20525;-45
2023/03/04 05:17:30;;;;;;;33.63;30.43;;;;;;;4.70;100.00;101746.66;4976115;28;20435;-49
2023/03/04 05:19:58;;;;;;;31.83;29.27;;;;;;;4.67;100.00;101739.84;4975588;28;20476;-48
2023/03/04 05:22:25;;;;;;;31.83;29.27;;;;;;;4.71;100.00;101745.72;4975993;28;20455;-45
2023/03/04 05:24:53;;;;;;;30.03;28.20;;;;;;;4.69;100.00;101737.09;4975934;28;20430;-45
2023/03/04 05:27:21;;;;;;;32.73;30.10;;;;;;;4.69;100.00;101742.38;4975866;28;20453;-46
2023/03/04 05:29:48;;;;;;;32.57;29.83;;;;;;;4.67;100.00;101744.28;4975658;28;20441;-51
2023/03/04 05:32:17;;;;;;;30.67;28.57;;;;;;;4.65;100.00;101747.09;4976114;28;20482;-50
2023/03/04 05:34:45;;;;;;;31.23;28.83;;;;;;;4.66;100.00;101748.75;4975758;28;20755;-48
2023/03/04 05:37:13;;;;;;;32.93;30.00;;;;;;;4.67;100.00;101766.28;4975901;28;20529;-49
2023/03/04 05:39:40;;;;;;;31.60;29.27;;;;;;;4.66;100.00;101763.78;4975009;28;20447;-48
2023/03/04 05:42:08;;;;;;;33.17;30.30;;;;;;;4.68;100.00;101756.53;4975400;28;20829;-46
2023/03/04 05:44:35;;;;;;;33.37;30.00;;;;;;;4.66;100.00;101750.56;4975628;28;20445;-50
2023/03/04 05:47:03;;;;;;;30.57;28.67;;;;;;;4.69;100.00;101751.13;4974124;28;20446;-46
2023/03/04 05:49:32;;;;;;;31.73;29.30;;;;;;;4.66;100.00;101748.75;4974644;28;20439;-47
2023/03/04 05:52:00;;;;;;;32.00;29.47;;;;;;;4.64;100.00;101763.91;4993965;28;20462;-45
2023/03/04 05:54:27;;;;;;;32.53;29.53;;;;;;;4.60;100.00;101751.09;4994145;28;20441;-45
2023/03/04 05:56:55;;;;;;;31.50;29.00;;;;;;;4.63;100.00;101758.75;4994489;28;20457;-45
2023/03/04 05:59:23;;;;;;;33.07;29.57;;;;;;;4.61;100.00;101763.31;4983898;28;20779;-44
2023/03/04 06:01:51;;;;;;;32.60;29.60;;;;;;;4.58;100.00;101777.63;4974394;28;20493;-44
2023/03/04 06:04:19;;;;;;;45.47;32.10;;;;;;;4.54;100.00;101770.94;4974335;28;20929;-46
2023/03/04 06:06:48;;;;;;;32.67;29.97;;;;;;;4.51;100.00;101768.56;4975142;28;20447;-47
2023/03/04 06:09:15;;;;;;;33.13;30.63;;;;;;;4.48;100.00;101768.81;4974081;28;20439;-48
2023/03/04 06:11:43;;;;;;;31.80;29.20;;;;;;;4.46;100.00;101762.84;4992091;28;20464;-47
2023/03/04 06:14:11;;;;;;;32.43;29.73;;;;;;;4.47;100.00;101775.09;4993547;28;21027;-45
2023/03/04 06:16:39;;;;;;;33.97;30.73;;;;;;;4.42;100.00;101777.31;4994083;28;20528;-48
2023/03/04 06:19:06;;;;;;;32.13;28.90;;;;;;;4.41;100.00;101776.47;4992164;28;20434;-47
2023/03/04 06:21:34;;;;;;;34.67;31.07;;;;;;;4.42;100.00;101766.75;4993108;28;20477;-44
2023/03/04 06:24:03;;;;;;;31.83;28.93;;;;;;;4.45;100.00;101780.50;4993443;28;20429;-44
2023/03/04 06:26:31;;;;;;;35.60;29.53;;;;;;;4.46;100.00;101778.69;4993981;28;20441;-46
2023/03/04 06:28:59;;;;;;;34.93;30.23;;;;;;;4.47;100.00;101775.09;4993226;28;20501;-45
2023/03/04 06:31:26;;;;;;;31.97;28.80;;;;;;;4.44;100.00;101780.66;4993114;28;20458;-46
2023/03/04 06:33:54;;;;;;;32.50;29.30;;;;;;;4.44;100.00;101772.72;4992558;28;20473;-47
2023/03/04 06:36:22;;;;;;;32.77;29.67;;;;;;;4.46;100.00;101781.34;4993445;28;21073;-45
2023/03/04 06:38:50;;;;;;;35.27;30.40;;;;;;;4.44;100.00;101773.56;4993043;28;20445;-44
2023/03/04 06:41:19;;;;;;;32.87;29.53;;;;;;;4.44;100.00;101778.84;4992895;28;20490;-45
2023/03/04 06:43:46;;;;;;;31.30;28.67;;;;;;;4.44;100.00;101778.84;4993112;28;20438;-47
2023/03/04 06:46:14;;;;;;;33.40;30.23;;;;;;;4.43;100.00;101781.59;4999120;28;20433;-45
2023/03/04 06:48:42;;;;;;;32.73;29.27;;;;;;;4.39;100.00;101793.41;4998918;28;20438;-46
2023/03/04 06:51:11;;;;;;;31.37;27.80;;;;;;;4.36;100.00;101794.47;4992880;28;20527;-49
2023/03/04 06:53:39;;;;;;;36.20;29.00;;;;;;;4.36;100.00;101798.97;4992913;28;20477;-48
2023/03/04 06:56:09;;;;;;;29.70;26.97;;;;;;;4.32;100.00;101786.97;4993149;28;20465;-45
2023/03/04 06:58:38;;;;;;;30.87;27.77;;;;;;;4.32;100.00;101787.81;4992589;28;20446;-48
2023/03/04 07:01:11;;;;;;;25.40;23.30;;;;;;;4.31;100.00;101786.13;4992196;28;20466;-49
2023/03/04 07:03:39;;;;;;;28.90;25.20;;;;;;;4.30;100.00;101800.28;4995753;28;20498;-45
2023/03/04 07:06:09;;;;;;;32.33;26.20;;;;;;;4.27;100.00;101802.38;4999380;28;20458;-48
2023/03/04 07:08:37;;;;;;;27.87;24.70;;;;;;;4.27;100.00;101791.81;4993278;28;20438;-47
2023/03/04 07:11:05;;;;;;;39.33;24.60;;;;;;;4.27;100.00;101792.63;4992066;28;20993;-47
2023/03/04 07:13:36;;;;;;;30.93;23.77;;;;;;;4.30;100.00;101802.13;4992328;28;20500;-44
2023/03/04 07:16:07;;;;;;;24.97;22.90;;;;;;;4.31;100.00;101801.13;4992593;28;20436;-46
2023/03/04 07:18:35;;;;;;;28.40;23.43;;;;;;;4.33;100.00;101815.06;4992232;28;20978;-45
2023/03/04 07:21:04;;;;;;;25.50;23.13;;;;;;;4.35;100.00;101806.03;4992203;28;21025;-46
2023/03/04 07:23:32;;;;;;;27.53;23.40;;;;;;;4.41;100.00;101804.66;4991926;28;20446;-48
2023/03/04 07:25:59;;;;;;;24.90;23.00;;;;;;;4.42;100.00;101811.63;4992338;28;21026;-45
2023/03/04 07:28:27;;;;;;;26.43;23.73;;;;;;;4.41;100.00;101816.09;4992236;28;20442;-47
2023/03/04 07:30:55;;;;;;;25.00;22.70;;;;;;;4.43;100.00;101815.94;4992126;28;20505;-50
2023/03/04 07:33:24;;;;;;;27.90;24.57;;;;;;;4.40;100.00;101816.19;4992080;28;20474;-47
2023/03/04 07:35:58;;;;;;;26.30;23.87;;;;;;;4.42;100.00;101828.28;4992359;28;20443;-48
2023/03/04 07:38:26;;;;;;;31.63;25.03;;;;;;;4.41;100.00;101821.38;4988253;28;20908;-46
2023/03/04 07:40:56;;;;;;;28.77;23.47;;;;;;;4.45;100.00;101832.47;4991316;28;20465;-46
2023/03/04 07:43:23;;;;;;;26.20;23.80;;;;;;;4.49;100.00;101831.25;4992048;28;20504;-45
2023/03/04 07:45:51;;;;;;;26.50;24.53;;;;;;;4.55;100.00;101846.59;4992259;28;20442;-45
2023/03/04 07:48:19;;;;;;;29.20;23.03;;;;;;;4.56;100.00;101837.69;4992090;28;20844;-48
2023/03/04 07:50:48;;;;;;;26.63;24.20;;;;;;;4.63;100.00;101832.75;4991753;28;20489;-45
2023/03/04 07:53:16;;;;;;;26.27;24.13;;;;;;;4.57;100.00;101827.97;4990561;28;20465;-44
2023/03/04 07:55:43;;;;;;;27.40;24.53;;;;;;;4.61;100.00;101851.34;4989689;28;20814;-45
2023/03/04 07:58:11;;;;;;;23.90;21.60;;;;;;;4.58;100.00;101846.31;4991318;28;20434;-46
2023/03/04 08:00:40;;;;;;;26.70;23.97;;;;;;;4.55;100.00;101851.88;4990051;28;20524;-46
2023/03/04 08:03:08;;;;;;;26.63;23.00;;;;;;;4.59;100.00;101841.88;4990892;28;20453;-50
2023/03/04 08:05:35;;;;;;;22.17;20.10;;;;;;;4.51;100.00;101833.78;4990933;28;20778;-45
2023/03/04 08:08:05;;;;;;;25.20;22.93;;;;;;;4.57;100.00;101843.81;4990882;28;20524;-47
2023/03/04 08:10:33;;;;;;;29.10;23.40;;;;;;;4.59;100.00;101858.56;4990485;28;20492;-44
2023/03/04 08:13:00;;;;;;;24.57;22.17;;;;;;;4.64;100.00;101852.88;4990893;28;20987;-44
2023/03/04 08:15:31;;;;;;;28.53;21.53;;;;;;;4.66;100.00;101838.56;4990058;28;20516;-45
2023/03/04 08:17:59;;;;;;;22.07;18.60;;;;;;;4.64;100.00;101839.66;4990408;28;20461;-45
2023/03/04 08:20:27;;;;;;;20.03;17.30;;;;;;;4.69;100.00;101830.38;4990545;28;20468;-48
2023/03/04 08:22:54;;;;;;;20.53;17.30;;;;;;;4.81;100.00;101837.25;4990707;28;20812;-44
2023/03/04 08:25:23;;;;;;;26.70;17.27;;;;;;;4.79;100.00;101843.66;4990764;28;20433;-47
2023/03/04 08:27:51;;;;;;;20.03;15.90;;;;;;;4.83;100.00;101853.00;4991016;28;20863;-45
2023/03/04 08:30:19;;;;;;;22.20;14.90;;;;;;;4.92;100.00;101841.63;4990374;28;20461;-44
2023/03/04 08:32:46;;;;;;;18.47;15.03;;;;;;;4.95;100.00;101822.84;4986893;28;20458;-45
2023/03/04 08:35:14;;;;;;;22.93;15.07;;;;;;;4.97;100.00;101829.69;4992638;28;20473;-49
2023/03/04 08:37:42;;;;;;;20.50;15.10;;;;;;;5.06;100.00;101828.03;4994895;28;20434;-45
2023/03/04 08:40:11;;;;;;;23.77;14.83;;;;;;;5.01;100.00;101835.53;4993825;28;20462;-45
2023/03/04 08:42:41;;;;;;;24.40;15.57;;;;;;;5.16;100.00;101841.28;4974243;28;20449;-49
2023/03/04 08:45:10;;;;;;;19.17;14.73;;;;;;;5.17;100.00;101819.97;4993846;28;20856;-46
2023/03/04 08:47:39;;;;;;;20.73;15.10;;;;;;;5.30;100.00;101832.97;4994360;28;20446;-45
2023/03/04 08:50:08;;;;;;;22.87;12.97;;;;;;;5.24;100.00;101834.34;4993767;28;20457;-45
2023/03/04 08:52:36;;;;;;;19.37;13.00;;;;;;;5.40;100.00;101847.91;4999966;28;20998;-43
2023/03/04 08:55:04;;;;;;;22.10;13.07;;;;;;;5.40;100.00;101839.13;4999209;28;20474;-46
2023/03/04 08:57:31;;;;;;;18.77;13.33;;;;;;;5.48;100.00;101823.38;4999366;28;20441;-46
2023/03/04 09:00:00;;;;;;;26.53;13.73;;;;;;;5.70;100.00;101830.25;4999596;28;20461;-44
2023/03/04 09:02:28;;;;;;;14.80;11.80;;;;;;;5.81;99.97;101832.75;4999194;28;20445;-43
2023/03/04 09:04:56;;;;;;;23.70;12.83;;;;;;;5.92;100.00;101829.97;4998865;28;20434;-47
2023/03/04 09:07:24;;;;;;;18.83;11.23;;;;;;;5.89;100.00;101812.56;5000446;28;20442;-44
2023/03/04 09:09:51;;;;;;;20.77;11.53;;;;;;;5.64;100.00;101826.34;4999034;28;20454;-44
2023/03/04 09:55:37;;;;;;;24.03;9.77;;;;;;;5.33;100.00;101825.59;5087260;28;21081;-44
2023/03/04 09:58:13;;;;;;;11.67;8.80;;;;;;;-141.22;100.00;65034.22;5086952;28;20791;-44
2023/03/04 10:00:43;;;;;;;22.57;10.87;;;;;;;-141.22;100.00;65034.22;5056839;28;20547;-45
2023/03/04 10:03:16;;;;;;;15.13;9.90;;;;;;;-141.22;100.00;65034.22;5010754;28;20535;-44
2023/03/04 10:05:50;;;;;;;12.80;9.77;;;;;;;-141.22;100.00;65034.22;5004277;28;20815;-43
2023/03/04 10:08:26;;;;;;;12.37;10.33;;;;;;;;;;5002109;28;20421;-47
2023/03/04 10:10:58;;;;;;;17.20;9.13;;;;;;;5.63;100.00;101829.94;5004209;28;20472;-45
2023/03/04 10:13:35;;;;;;;20.07;9.57;;;;;;;5.83;100.00;101836.09;5001731;28;20465;-43
2023/03/04 10:16:08;;;;;;;11.13;9.53;;;;;;;5.90;100.00;101837.25;5007193;28;20816;-44
2023/03/04 10:18:40;;;;;;;17.80;9.90;;;;;;;5.95;100.00;101827.06;5007139;28;20509;-44
2023/03/04 10:21:20;;;;;;;19.70;10.00;;;;;;;5.95;100.00;101827.91;5006725;28;20500;-43
2023/03/04 10:23:49;;;;;;;16.60;9.20;;;;;;;5.97;100.00;101836.53;5004631;28;20440;-44
2023/03/04 10:26:21;;;;;;;12.80;7.97;;;;;;;5.90;100.00;101837.25;5006818;28;20433;-45
2023/03/04 10:28:49;;;;;;;18.70;8.77;;;;;;;5.87;100.00;101838.34;5007100;28;21005;-42
2023/03/04 10:31:21;;;;;;;19.90;10.03;;;;;;;6.03;100.00;101825.38;5006401;28;20461;-47
2023/03/04 10:33:49;;;;;;;18.33;8.43;;;;;;;6.19;100.00;101831.91;5005838;28;20473;-46
2023/03/04 10:36:37;;;;;;;17.73;9.00;;;;;;;6.25;100.00;101829.53;5006626;28;20445;-45
2023/03/04 10:39:09;;;;;;;15.47;9.90;;;;;;;6.11;100.00;101824.69;5006793;28;20437;-44
2023/03/04 10:41:43;;;;;;;15.90;8.53;;;;;;;6.10;100.00;101828.31;5006018;28;20496;-43
2023/03/04 10:44:16;;;;;;;13.73;9.07;;;;;;;6.10;100.00;101828.31;5005713;28;20965;-46
2023/03/04 10:46:46;;;;;;;20.03;9.20;;;;;;;6.13;100.00;101828.84;5006592;28;20429;-45
2023/03/04 10:49:16;;;;;;;14.30;8.63;;;;;;;6.15;100.00;101822.59;5007018;28;20795;-44
2023/03/04 10:51:45;;;;;;;19.53;9.70;;;;;;;6.11;99.44;101830.81;5005899;28;20504;-44
2023/03/04 10:54:23;;;;;;;12.80;8.33;;;;;;;6.55;99.54;101834.63;5004075;28;20477;-44
2023/03/04 10:56:58;;;;;;;13.37;8.53;;;;;;;6.68;95.76;101836.97;5004430;28;20968;-44
2023/03/04 10:59:38;;;;;;;15.37;8.47;;;;;;;6.75;94.31;101837.22;5006716;28;20821;-49
2023/03/04 11:02:25;;;;;;;10.00;8.30;;;;;;;6.73;92.90;101831.22;5045526;28;20485;-44
2023/03/04 11:05:06;;;;;;;10.43;8.00;;;;;;;6.85;91.86;101825.59;5043324;28;20514;-46
2023/03/04 11:07:40;;;;;;;12.47;8.30;;;;;;;6.80;96.39;101819.91;5032912;28;20431;-45
2023/03/04 11:10:30;;;;;;;10.40;8.13;;;;;;;6.79;94.67;101825.34;5031398;28;20468;-46
2023/03/04 11:13:02;;;;;;;21.57;8.03;;;;;;;6.86;95.37;101821.97;5032084;28;20448;-44
2023/03/04 11:15:44;;;;;;;11.10;7.97;;;;;;;7.04;97.15;101830.81;5031733;28;20471;-44
2023/03/04 11:18:14;;;;;;;18.13;8.50;;;;;;;7.03;94.27;101834.44;5032102;28;20420;-45
2023/03/04 11:20:45;;;;;;;15.27;7.43;;;;;;;7.09;94.12;101843.63;5031697;28;20455;-48
2023/03/04 11:23:17;;;;;;;14.13;7.60;;;;;;;7.09;92.72;101840.97;5031912;28;20531;-44
2023/03/04 11:25:49;;;;;;;15.33;7.00;;;;;;;7.12;94.17;101830.91;5032120;28;20424;-45
2023/03/04 11:28:24;;;;;;;13.77;8.03;;;;;;;7.06;96.68;101828.00;5032511;28;20910;-47
2023/03/04 11:30:57;;;;;;;13.10;7.90;;;;;;;6.94;92.17;101822.06;5031840;28;20463;-50
2023/03/04 11:33:33;;;;;;;11.03;7.20;;;;;;;7.40;94.28;101820.28;5031629;28;20460;-45
2023/03/04 11:36:18;;;;;;;11.20;8.13;;;;;;;7.21;91.69;101824.72;5031829;28;20537;-45
2023/03/04 11:38:49;;;;;;;10.57;7.60;;;;;;;7.15;89.07;101817.34;5032700;28;20447;-46
2023/03/04 11:41:23;;;;;;;14.70;8.60;;;;;;;7.22;88.17;101818.44;5032043;28;20993;-45
2023/03/04 11:43:52;;;;;;;18.27;8.80;;;;;;;7.24;92.18;101820.94;5030385;28;20438;-45
2023/03/04 11:46:36;;;;;;;12.67;7.93;;;;;;;7.29;91.37;101826.59;5031882;28;20433;-43
2023/03/04 11:49:23;;;;;;;13.20;6.90;;;;;;;7.31;88.47;101823.81;5028814;28;20441;-44
2023/03/04 11:52:00;;;;;;;11.53;8.07;;;;;;;7.15;91.40;101816.50;5030174;28;20467;-48
2023/03/04 11:54:34;;;;;;;12.13;7.83;;;;;;;7.10;87.44;101809.00;5033247;28;20471;-49
2023/03/04 11:57:08;;;;;;;13.00;7.53;;;;;;;7.14;87.91;101812.19;5033202;28;20432;-44
2023/03/04 11:59:56;;;;;;;8.73;7.50;;;;;;;7.33;90.80;101803.28;5032269;28;20511;-50
2023/03/04 12:02:34;;;;;;;12.87;7.80;;;;;;;7.53;86.98;101807.47;5031599;28;21099;-43
2023/03/04 12:05:23;;;;;;;16.67;7.70;;;;;;;7.51;86.54;101801.47;5032364;28;20428;-44